Aérodrome :
LOGIN :

S'inscrire | Disclaimer

   EN    FR    IT 

 










Légende :    VFR   VFR Marginal   IFR   IFR Intensif   IFR Très Intensif
Visi : 
Plafond : 
>= 8 km
>= 3000ft
5 à 8 km
1000 à 3000 ft
1500m à 5 km
500 à 1000 ft
800 à 1500m
200 à 500 ft
< 800m
< 200 ft
Symboles :   Orages  Brouillard  Fortes neiges  Fortes précipitations  Vent > 20 kt
SIGMETs :   Divers  Orages  Givrage  Turbulence  Onde Orograph.  Cendres Volcan.






- Altitude de l'aérodrome : 3006 ft
- Code IATA : LEN


LELN - Leon

DERNIER METAR :
  • 151030Z 20016KT 170V230 9999 BKN007 OVC014 08/07 Q1010

METARs EXPIRÉS :
  • 151000Z 20017KT 170V230 9999 BKN007 OVC013 08/07 Q1010
  • 150930Z 20014KT 170V240 9999 BKN008 BKN015 08/07 Q1010
  • 150900Z 19017KT 9999 BKN006 BKN014 08/07 Q1010
  • 150830Z 19015KT 160V220 9999 BKN007 BKN011 07/07 Q1010
  • 150800Z 19013KT 160V220 9999 BKN005 07/07 Q1010

TAF TAF LELN
Valide du 15 à 09h jusqu'au 15 à 18h UTC


150800Z 1509/1518 21014KT 9999 SCT020 BKN035
PROB30
TEMPO 1509/1512 4500 DZRA BR BKN012
PROB40
TEMPO 1509/1517 21017G27KT



MET'MAP, la Météo Aéronautique d'un coup d'oeil ! - Copyright ORBIFLY Décembre 2007 - Disclaimer

ORBIFLY MET'MAP TEAM :

Programmation & Développement : Alexandra Zaïnal
Sur une idée originale de : Baudouin d'Aumeries
Assistance à la programmation : Marc-Olivier Méhu
Soutien technique & logistique : Manuel Goepfert

Contact : metmap@orbifly.com




SOURCES & CREDITS :

   NOAA